createdAt,value
2023-01-26T00:02:04.162Z,20.90
2023-01-26T00:04:32.114Z,18.10
2023-01-26T00:07:00.107Z,18.90
2023-01-26T00:09:28.023Z,19.60
2023-01-26T00:11:56.428Z,18.60
2023-01-26T00:14:24.363Z,18.20
2023-01-26T00:16:58.031Z,19.20
2023-01-26T00:19:26.203Z,20.40
2023-01-26T00:21:54.099Z,19.70
2023-01-26T00:24:25.570Z,21.20
2023-01-26T00:26:53.933Z,18.90
2023-01-26T00:29:21.978Z,20.20
2023-01-26T00:31:50.745Z,20.60
2023-01-26T00:34:18.756Z,20.60
2023-01-26T00:36:46.728Z,18.50
2023-01-26T00:39:14.614Z,18.20
2023-01-26T00:42:01.330Z,21.00
2023-01-26T00:44:29.418Z,18.70
2023-01-26T00:46:57.293Z,19.80
2023-01-26T00:49:25.835Z,18.80
2023-01-26T00:51:53.816Z,19.50
2023-01-26T00:54:21.775Z,20.20
2023-01-26T00:56:49.785Z,21.20
2023-01-26T00:59:17.822Z,21.90
2023-01-26T01:01:47.886Z,19.80
2023-01-26T01:04:17.444Z,20.60
2023-01-26T01:06:45.640Z,21.00
2023-01-26T01:09:13.614Z,22.10
2023-01-26T01:11:43.125Z,20.90
2023-01-26T01:14:13.152Z,20.80
2023-01-26T01:16:41.473Z,21.10
2023-01-26T01:19:15.602Z,21.60
2023-01-26T01:21:44.456Z,21.90
2023-01-26T01:24:12.419Z,23.20
2023-01-26T01:26:40.487Z,23.00
2023-01-26T01:29:12.862Z,22.90
2023-01-26T01:31:41.677Z,23.80
2023-01-26T01:34:10.691Z,24.80
2023-01-26T01:36:41.365Z,23.90
2023-01-26T01:39:09.439Z,24.20
2023-01-26T01:41:37.410Z,25.90
2023-01-26T01:44:31.808Z,27.60
2023-01-26T01:47:03.376Z,27.10
2023-01-26T01:49:34.742Z,25.60
2023-01-26T01:52:11.062Z,26.50
2023-01-26T01:54:48.908Z,24.60
2023-01-26T01:57:27.854Z,24.60
2023-01-26T02:00:09.386Z,24.50
2023-01-26T02:02:44.997Z,24.70
2023-01-26T02:05:34.071Z,25.00
2023-01-26T02:08:03.049Z,25.70
2023-01-26T02:10:31.307Z,25.30
2023-01-26T02:13:00.936Z,26.90
2023-01-26T02:15:29.621Z,26.70
2023-01-26T02:17:57.998Z,26.00
2023-01-26T02:20:30.593Z,26.10
2023-01-26T02:23:23.379Z,24.10
2023-01-26T02:25:56.155Z,24.50
2023-01-26T02:28:26.197Z,25.30
2023-01-26T02:30:54.572Z,24.30
2023-01-26T02:33:27.771Z,24.70
2023-01-26T02:36:00.583Z,25.20
2023-01-26T02:38:33.998Z,24.80
2023-01-26T02:41:07.310Z,24.90
2023-01-26T02:43:38.810Z,24.00
2023-01-26T02:46:07.146Z,24.50
2023-01-26T02:48:59.432Z,22.50
2023-01-26T02:51:30.855Z,24.00
2023-01-26T02:54:02.502Z,23.80
2023-01-26T02:56:40.140Z,24.60
2023-01-26T02:59:08.263Z,25.60
2023-01-26T03:01:36.284Z,27.60
2023-01-26T03:04:06.871Z,24.50
2023-01-26T03:06:35.101Z,24.40
2023-01-26T03:09:03.029Z,27.00
2023-01-26T03:11:42.122Z,27.20
2023-01-26T03:14:15.359Z,27.40
2023-01-26T03:16:43.634Z,28.60
2023-01-26T03:19:32.291Z,28.10
2023-01-26T03:22:19.625Z,27.90
2023-01-26T03:25:06.594Z,26.70
2023-01-26T03:27:40.733Z,26.80
2023-01-26T03:30:11.626Z,28.00
2023-01-26T03:32:40.876Z,28.30
2023-01-26T03:35:22.644Z,28.10
2023-01-26T03:37:54.764Z,27.20
2023-01-26T03:41:08.008Z,27.50
2023-01-26T03:43:55.972Z,28.30
2023-01-26T03:46:42.964Z,26.60
2023-01-26T03:49:30.243Z,25.60
2023-01-26T03:52:17.649Z,27.80
2023-01-26T03:55:08.575Z,27.80
2023-01-26T03:57:37.092Z,28.00
2023-01-26T04:00:06.319Z,27.60
2023-01-26T04:03:01.639Z,28.20
2023-01-26T04:05:49.659Z,26.50
2023-01-26T04:08:21.828Z,25.60
2023-01-26T04:10:53.991Z,29.10
2023-01-26T04:13:41.854Z,30.00
2023-01-26T04:16:31.504Z,29.30
2023-01-26T04:19:18.335Z,27.70
2023-01-26T04:21:47.564Z,27.70
2023-01-26T04:24:22.480Z,30.10
2023-01-26T04:26:54.968Z,27.90
2023-01-26T04:29:36.324Z,29.70
2023-01-26T04:32:04.948Z,27.70
2023-01-26T04:34:34.774Z,29.20
2023-01-26T04:37:06.001Z,29.60
2023-01-26T04:39:44.929Z,30.40
2023-01-26T04:42:13.104Z,31.00
2023-01-26T04:44:41.716Z,32.10
2023-01-26T04:47:10.655Z,30.90
2023-01-26T04:49:39.960Z,30.30
2023-01-26T04:52:08.440Z,31.70
2023-01-26T04:54:36.766Z,32.50
2023-01-26T04:57:04.812Z,30.30
2023-01-26T04:59:32.944Z,31.20
2023-01-26T05:02:02.290Z,31.40
2023-01-26T05:04:30.439Z,31.80
2023-01-26T05:06:58.565Z,29.70
2023-01-26T05:09:27.532Z,30.80
2023-01-26T05:12:33.173Z,30.00
2023-01-26T05:15:20.024Z,28.80
2023-01-26T05:18:18.202Z,26.70
2023-01-26T05:20:55.052Z,28.20
2023-01-26T05:23:27.620Z,28.30
2023-01-26T05:26:05.092Z,28.50
2023-01-26T05:28:41.437Z,28.00
2023-01-26T05:31:09.488Z,28.40
2023-01-26T05:33:39.785Z,28.80
2023-01-26T05:36:09.479Z,29.30
2023-01-26T05:38:37.941Z,28.50
2023-01-26T05:41:07.512Z,28.10
2023-01-26T05:43:46.827Z,29.10
2023-01-26T05:46:33.628Z,30.00
2023-01-26T05:49:01.667Z,28.60
2023-01-26T05:51:30.381Z,28.40
2023-01-26T05:53:58.619Z,28.90
2023-01-26T05:56:27.163Z,28.20
2023-01-26T05:59:00.266Z,27.20
2023-01-26T06:01:28.391Z,28.70
2023-01-26T06:03:59.217Z,26.00
2023-01-26T06:06:32.116Z,27.30
2023-01-26T06:09:11.072Z,26.80
2023-01-26T06:11:56.896Z,28.30
2023-01-26T06:14:47.658Z,25.60
2023-01-26T06:17:17.621Z,25.40
2023-01-26T06:19:49.144Z,26.50
2023-01-26T06:22:17.891Z,26.90
2023-01-26T06:24:49.622Z,27.20
2023-01-26T06:27:18.691Z,27.10
2023-01-26T06:29:48.572Z,27.90
2023-01-26T06:32:16.967Z,30.00
2023-01-26T06:34:46.680Z,28.40
2023-01-26T06:37:15.544Z,30.60
2023-01-26T06:39:44.951Z,30.20
2023-01-26T06:42:13.158Z,29.20
2023-01-26T06:44:41.545Z,30.30
2023-01-26T06:47:09.945Z,30.90
2023-01-26T06:49:38.047Z,32.80
2023-01-26T06:52:35.867Z,34.40
2023-01-26T06:55:37.876Z,32.50
2023-01-26T06:58:24.761Z,34.50
2023-01-26T07:01:34.756Z,32.60
2023-01-26T07:04:03.025Z,31.50
2023-01-26T07:06:31.002Z,30.90
2023-01-26T07:08:58.888Z,33.10
2023-01-26T07:11:30.138Z,31.70
2023-01-26T07:13:58.951Z,32.90
2023-01-26T07:16:27.108Z,34.30
2023-01-26T07:18:55.867Z,32.60
2023-01-26T07:21:23.957Z,34.80
2023-01-26T07:23:53.354Z,33.40
2023-01-26T07:26:21.477Z,33.10
2023-01-26T07:28:49.691Z,36.30
2023-01-26T07:31:18.048Z,36.20
2023-01-26T07:33:46.868Z,37.40
2023-01-26T07:36:15.057Z,38.50
2023-01-26T07:38:43.052Z,35.70
2023-01-26T07:41:11.925Z,35.50
2023-01-26T07:43:41.275Z,33.20
2023-01-26T07:46:12.555Z,31.90
2023-01-26T07:48:41.755Z,32.50
2023-01-26T07:51:11.177Z,32.20
2023-01-26T07:53:39.922Z,32.60
2023-01-26T07:56:13.070Z,34.60
2023-01-26T07:58:41.475Z,33.50
2023-01-26T08:01:13.696Z,31.70
2023-01-26T08:03:42.610Z,31.30
2023-01-26T08:06:12.628Z,31.10
2023-01-26T08:08:43.263Z,31.50
2023-01-26T08:11:11.860Z,31.00
2023-01-26T08:13:39.802Z,32.00
2023-01-26T08:16:12.847Z,30.90
2023-01-26T08:18:42.036Z,32.60
2023-01-26T08:21:11.592Z,33.10
2023-01-26T08:23:39.609Z,33.00
2023-01-26T08:26:10.225Z,33.20
2023-01-26T08:28:38.307Z,32.30
2023-01-26T08:31:13.478Z,30.30
2023-01-26T08:33:43.676Z,33.60
2023-01-26T08:36:12.843Z,33.00
2023-01-26T08:38:41.239Z,32.70
2023-01-26T08:41:09.513Z,30.60
2023-01-26T08:43:37.800Z,31.00
2023-01-26T08:46:06.283Z,29.80
2023-01-26T08:48:34.328Z,30.00
2023-01-26T08:51:03.072Z,28.30
2023-01-26T08:53:32.488Z,27.80
2023-01-26T08:56:06.194Z,26.90
2023-01-26T08:58:35.714Z,26.40
2023-01-26T09:01:08.369Z,28.30
2023-01-26T09:03:36.487Z,25.90
2023-01-26T09:06:05.254Z,27.30
2023-01-26T09:08:33.242Z,27.40
2023-01-26T09:11:01.443Z,28.70
2023-01-26T09:13:30.332Z,26.70
2023-01-26T09:16:20.053Z,26.80
2023-01-26T09:18:52.713Z,25.60
2023-01-26T09:21:21.206Z,25.10
2023-01-26T09:23:49.087Z,25.10
2023-01-26T09:26:17.257Z,25.50
2023-01-26T09:28:45.268Z,24.20
2023-01-26T09:31:13.514Z,26.60
2023-01-26T09:33:44.680Z,25.60
2023-01-26T09:36:13.028Z,23.30
2023-01-26T09:38:41.050Z,22.70
2023-01-26T09:41:33.863Z,22.20
2023-01-26T09:44:05.428Z,21.30
2023-01-26T09:46:44.548Z,21.80
2023-01-26T09:49:15.583Z,20.30
2023-01-26T09:51:48.087Z,21.60
2023-01-26T09:54:33.507Z,20.90
2023-01-26T09:57:02.465Z,19.30
2023-01-26T09:59:35.162Z,18.60
2023-01-26T10:02:16.738Z,18.20
2023-01-26T10:04:47.020Z,19.00
2023-01-26T10:07:15.630Z,18.30
2023-01-26T10:09:47.639Z,17.20
2023-01-26T10:12:36.372Z,18.20
2023-01-26T10:15:28.829Z,17.50
2023-01-26T10:17:56.848Z,17.30
2023-01-26T10:20:35.429Z,16.10
2023-01-26T10:23:03.524Z,16.60
2023-01-26T10:25:36.788Z,17.90
2023-01-26T10:28:15.585Z,15.50
2023-01-26T10:30:45.647Z,16.50
2023-01-26T10:33:40.633Z,15.40
2023-01-26T10:36:09.306Z,15.60
2023-01-26T10:38:37.923Z,15.60
2023-01-26T10:41:16.983Z,16.90
2023-01-26T10:43:59.181Z,16.20
2023-01-26T10:46:45.528Z,16.30
2023-01-26T10:49:16.292Z,14.50
2023-01-26T10:52:06.412Z,13.50
2023-01-26T10:54:36.988Z,13.50
2023-01-26T10:57:11.950Z,11.90
2023-01-26T10:59:50.382Z,13.90
2023-01-26T11:02:29.227Z,13.10
2023-01-26T11:05:09.607Z,13.20
2023-01-26T11:07:42.572Z,13.20
2023-01-26T11:10:19.676Z,13.70
2023-01-26T11:12:48.827Z,12.60
2023-01-26T11:15:24.837Z,12.70
2023-01-26T11:17:58.757Z,11.50
2023-01-26T11:21:11.704Z,12.60
2023-01-26T11:24:13.198Z,12.00
2023-01-26T11:26:53.302Z,12.10
2023-01-26T11:29:49.220Z,12.60
2023-01-26T11:32:39.718Z,11.70
2023-01-26T11:35:27.751Z,12.40
2023-01-26T11:38:33.829Z,13.80
2023-01-26T11:41:54.341Z,13.20
2023-01-26T11:44:36.139Z,12.80
2023-01-26T14:16:37.300Z,13.70
2023-01-26T14:21:47.680Z,15.30
2023-01-26T14:24:17.019Z,16.80
2023-01-26T14:26:45.299Z,15.40
2023-01-26T14:29:19.636Z,14.70
2023-01-26T14:31:48.710Z,16.50
2023-01-26T14:34:20.532Z,16.40
2023-01-26T14:36:48.682Z,15.50
2023-01-26T14:39:18.334Z,14.30
2023-01-26T14:41:46.649Z,16.70
2023-01-26T14:44:14.724Z,16.70
2023-01-26T14:46:57.285Z,16.20
2023-01-26T14:49:50.854Z,16.10
2023-01-26T14:52:33.990Z,16.30
2023-01-26T14:55:06.585Z,17.30
2023-01-26T14:57:34.732Z,18.50
2023-01-26T15:00:08.782Z,17.70
2023-01-26T15:02:38.186Z,19.10
2023-01-26T15:05:13.045Z,20.70
2023-01-26T15:07:52.041Z,21.30
2023-01-26T15:10:39.062Z,20.70
2023-01-26T15:13:21.854Z,19.70
2023-01-26T15:16:05.123Z,19.60
2023-01-26T15:18:34.667Z,19.50
2023-01-26T15:21:05.655Z,21.20
2023-01-26T15:23:37.614Z,19.80
2023-01-26T15:26:10.421Z,21.20
2023-01-26T15:28:38.823Z,21.70
2023-01-26T15:31:07.125Z,18.40
2023-01-26T15:33:54.860Z,19.50
2023-01-26T15:36:31.038Z,18.40
2023-01-26T15:39:04.547Z,19.30
2023-01-26T15:41:32.962Z,19.00
2023-01-26T15:44:00.994Z,18.80
2023-01-26T15:46:31.194Z,20.10
2023-01-26T15:48:59.485Z,19.00
2023-01-26T15:51:29.720Z,19.30
2023-01-26T15:53:57.591Z,20.10
2023-01-26T15:56:25.695Z,20.00
2023-01-26T15:58:53.833Z,20.40
2023-01-26T16:01:22.875Z,22.00
2023-01-26T16:03:51.266Z,21.50
2023-01-26T16:06:28.342Z,21.90
2023-01-26T16:08:56.553Z,21.40
2023-01-26T16:11:35.499Z,21.10
2023-01-26T16:14:04.498Z,22.30
2023-01-26T16:16:32.904Z,23.60
2023-01-26T16:19:02.168Z,23.20
2023-01-26T16:21:33.735Z,23.20
2023-01-26T16:24:02.082Z,22.50
2023-01-26T16:26:30.405Z,22.70
2023-01-26T16:28:58.604Z,22.40
2023-01-26T16:31:29.941Z,22.50
2023-01-26T16:34:05.621Z,22.80
2023-01-26T16:36:34.912Z,22.50
2023-01-26T16:39:02.825Z,23.60
2023-01-26T16:41:34.912Z,23.20
2023-01-26T16:44:03.521Z,24.00
2023-01-26T16:46:31.501Z,23.00
2023-01-26T16:48:59.549Z,23.00
2023-01-26T16:51:31.292Z,23.00
2023-01-26T16:53:59.468Z,22.50
2023-01-26T16:56:28.650Z,20.90
2023-01-26T16:58:56.642Z,22.00
2023-01-26T17:01:28.268Z,20.90
2023-01-26T17:03:56.295Z,19.90
2023-01-26T17:06:24.935Z,20.90
2023-01-26T17:08:52.954Z,21.00
2023-01-26T17:11:23.209Z,19.90
2023-01-26T17:13:51.435Z,20.60
2023-01-26T17:16:21.325Z,21.30
2023-01-26T17:18:49.431Z,19.30
2023-01-26T17:21:18.714Z,19.90
2023-01-26T17:23:53.519Z,19.60
2023-01-26T17:26:21.618Z,19.20
2023-01-26T17:28:54.001Z,20.20
2023-01-26T17:31:23.833Z,19.40
2023-01-26T17:33:51.964Z,19.50
2023-01-26T17:36:20.018Z,20.00
2023-01-26T17:38:48.895Z,20.20
2023-01-26T17:41:17.208Z,18.10
2023-01-26T17:43:45.485Z,19.00
2023-01-26T17:46:17.077Z,18.90
2023-01-26T17:48:45.846Z,21.00
2023-01-26T17:51:18.029Z,18.80
2023-01-26T22:12:43.388Z,21.40
2023-01-26T22:15:11.903Z,25.30
2023-01-26T22:17:42.683Z,25.20
2023-01-26T22:20:14.338Z,24.60
2023-01-26T22:22:42.454Z,25.60
2023-01-26T22:25:12.944Z,24.40
2023-01-26T22:27:41.333Z,23.90
2023-01-26T22:30:10.744Z,25.20
2023-01-26T22:32:38.963Z,23.80
2023-01-26T22:35:09.050Z,25.00
2023-01-26T22:37:37.466Z,23.80
2023-01-26T22:40:06.280Z,24.60
2023-01-26T22:42:34.234Z,25.20
2023-01-26T22:45:02.479Z,24.60
2023-01-26T22:47:31.041Z,23.60
2023-01-26T22:49:59.276Z,24.10
2023-01-26T22:52:27.368Z,23.40
2023-01-26T22:54:55.420Z,23.60
2023-01-26T22:57:23.341Z,23.70
2023-01-26T22:59:51.524Z,23.40
2023-01-26T23:02:19.624Z,22.50
2023-01-26T23:04:47.828Z,23.70
2023-01-26T23:07:15.804Z,23.10
2023-01-26T23:09:45.402Z,23.10
2023-01-26T23:12:14.108Z,23.80
2023-01-26T23:14:42.220Z,23.30
2023-01-26T23:17:11.313Z,23.10
2023-01-26T23:19:39.304Z,23.70
2023-01-26T23:22:07.216Z,22.30
2023-01-26T23:24:35.257Z,22.20
2023-01-26T23:27:03.178Z,23.50
2023-01-26T23:29:31.171Z,23.30
2023-01-26T23:31:59.385Z,22.20
2023-01-26T23:34:27.307Z,22.90
2023-01-26T23:36:56.214Z,24.20
2023-01-26T23:39:24.126Z,22.50
2023-01-26T23:41:51.993Z,22.30
2023-01-26T23:44:20.306Z,23.00
2023-01-26T23:46:48.381Z,21.30
2023-01-26T23:49:18.858Z,23.20
2023-01-26T23:51:46.811Z,23.80
2023-01-26T23:54:14.817Z,23.20
2023-01-26T23:56:42.921Z,20.60
2023-01-26T23:59:10.965Z,24.80
